Time;durP1;ratioP1;P1;durP2;ratioP2;P2;SDS_P1;SDS_P2;PMS_P1;PMS_P2;Temp;Humidity;BMP_temperature;BMP_pressure;BME280_temperature;BME280_humidity;BME280_pressure;Samples;Min_cycle;Max_cycle;Signal;HPM_P1;HPM_P2
2023/07/23 00:02:18;;;;;;;5.50;3.35;;;20.40;92.60;;;;;;5053432;28;20040;-57
2023/07/23 00:04:43;;;;;;;5.15;3.20;;;20.40;92.60;;;;;;5053467;28;20021;-57
2023/07/23 00:07:09;;;;;;;6.30;3.15;;;20.40;92.80;;;;;;5053533;28;20443;-58
2023/07/23 00:09:34;;;;;;;4.90;3.28;;;20.40;92.90;;;;;;5058879;28;20068;-55
2023/07/23 00:12:01;;;;;;;9.80;4.10;;;20.40;93.00;;;;;;5058071;28;20489;-58
2023/07/23 00:14:26;;;;;;;20.63;3.47;;;20.30;93.10;;;;;;5058519;28;20037;-53
2023/07/23 00:16:52;;;;;;;17.17;4.05;;;20.30;93.30;;;;;;5057559;28;20033;-58
2023/07/23 00:19:21;;;;;;;5.18;4.00;;;20.30;93.40;;;;;;5058169;28;20041;-53
2023/07/23 00:21:48;;;;;;;7.50;5.20;;;20.20;93.40;;;;;;5054985;28;20063;-58
2023/07/23 00:24:14;;;;;;;11.43;8.45;;;20.20;93.60;;;;;;5054279;28;20033;-53
2023/07/23 00:26:40;;;;;;;7.82;4.00;;;20.20;93.70;;;;;;5061519;28;20025;-53
2023/07/23 00:29:06;;;;;;;6.57;3.53;;;20.10;93.80;;;;;;5062546;28;20044;-55
2023/07/23 00:31:31;;;;;;;13.02;3.65;;;20.10;93.80;;;;;;5044810;28;20147;-56
2023/07/23 00:33:57;;;;;;;8.77;4.22;;;20.10;94.00;;;;;;5062095;28;20047;-56
2023/07/23 00:38:48;;;;;;;10.63;3.55;;;20.00;94.40;;;;;;5031458;22;20144;-57
2023/07/23 00:41:14;;;;;;;11.23;3.53;;;19.90;94.50;;;;;;4997094;28;20036;-57
2023/07/23 00:43:39;;;;;;;10.98;3.50;;;19.90;94.60;;;;;;5014619;28;20163;-55
2023/07/23 00:46:05;;;;;;;9.77;3.30;;;19.90;94.80;;;;;;5014608;28;20022;-58
2023/07/23 00:48:30;;;;;;;6.32;3.00;;;19.90;94.90;;;;;;5014327;28;20022;-58
2023/07/23 00:50:56;;;;;;;10.27;3.38;;;19.80;95.00;;;;;;4997004;28;20099;-56
2023/07/23 00:53:23;;;;;;;7.53;3.38;;;19.80;95.20;;;;;;5014545;28;20481;-59
2023/07/23 00:55:49;;;;;;;8.68;2.88;;;19.70;95.30;;;;;;5014557;28;20053;-58
2023/07/23 00:58:15;;;;;;;6.18;3.58;;;19.70;95.40;;;;;;5014159;28;20046;-55
2023/07/23 01:00:40;;;;;;;5.40;3.10;;;19.70;95.70;;;;;;4996760;28;20040;-57
2023/07/23 01:03:06;;;;;;;6.90;3.15;;;19.60;95.80;;;;;;4996626;28;20379;-57
2023/07/23 01:05:33;;;;;;;5.60;3.33;;;19.60;96.10;;;;;;5014292;28;20022;-58
2023/07/23 01:07:59;;;;;;;14.48;3.72;;;19.50;96.30;;;;;;5013729;28;20033;-55
2023/07/23 01:10:25;;;;;;;7.10;3.67;;;19.50;96.50;;;;;;4996587;28;20026;-57
2023/07/23 01:12:51;;;;;;;7.57;3.28;;;19.50;96.50;;;;;;5014326;28;20126;-57
2023/07/23 01:15:17;;;;;;;9.05;4.05;;;19.40;96.80;;;;;;4995923;28;20084;-56
2023/07/23 01:17:43;;;;;;;10.35;4.03;;;19.40;96.90;;;;;;5013587;28;20122;-55
2023/07/23 01:20:09;;;;;;;10.35;4.03;;;19.30;97.00;;;;;;4996183;28;20109;-57
2023/07/23 01:22:36;;;;;;;4.07;3.35;;;19.30;97.20;;;;;;4996246;28;20026;-57
2023/07/23 01:25:03;;;;;;;11.07;3.22;;;19.30;97.30;;;;;;5013871;28;20482;-57
2023/07/23 01:27:28;;;;;;;8.52;3.78;;;19.20;97.40;;;;;;4995694;28;20030;-59
2023/07/23 01:29:54;;;;;;;3.70;3.17;;;19.20;97.50;;;;;;5013533;28;20087;-57
2023/07/23 01:32:19;;;;;;;12.77;4.10;;;19.10;97.60;;;;;;5013613;28;20512;-56
2023/07/23 01:34:45;;;;;;;4.57;3.45;;;19.10;97.80;;;;;;5013528;28;20034;-57
2023/07/23 01:37:12;;;;;;;6.72;3.30;;;19.00;97.90;;;;;;5012944;28;20033;-55
2023/07/23 01:39:38;;;;;;;7.53;3.95;;;19.00;98.10;;;;;;5013374;28;20509;-52
2023/07/23 01:42:04;;;;;;;5.82;3.67;;;19.00;98.10;;;;;;5013315;28;20034;-55
2023/07/23 01:44:30;;;;;;;4.30;3.38;;;18.90;98.40;;;;;;5013348;28;20021;-57
2023/07/23 01:46:55;;;;;;;6.47;3.03;;;18.80;98.50;;;;;;5013209;28;20030;-56
2023/07/23 01:49:21;;;;;;;8.13;3.33;;;18.80;98.60;;;;;;4996174;28;20295;-55
2023/07/23 01:51:46;;;;;;;9.68;4.10;;;18.80;98.70;;;;;;5013594;28;20037;-55
2023/07/23 01:54:11;;;;;;;7.68;4.30;;;18.70;98.90;;;;;;5013399;28;20033;-57
2023/07/23 01:56:37;;;;;;;4.20;3.63;;;18.70;99.00;;;;;;5012861;28;20026;-51
2023/07/23 01:59:04;;;;;;;7.50;3.70;;;18.70;99.10;;;;;;5013117;28;20424;-57
2023/07/23 02:01:30;;;;;;;4.03;3.33;;;18.70;99.10;;;;;;4995489;28;20038;-59
2023/07/23 02:03:55;;;;;;;5.70;4.00;;;18.60;99.30;;;;;;5013013;28;20356;-57
2023/07/23 02:06:21;;;;;;;6.45;4.03;;;18.50;99.50;;;;;;4995276;28;20447;-56
2023/07/23 02:08:46;;;;;;;9.48;3.72;;;18.50;99.70;;;;;;4995028;28;20022;-57
2023/07/23 02:11:12;;;;;;;5.93;3.72;;;18.50;99.80;;;;;;5012813;28;20029;-59
2023/07/23 02:13:37;;;;;;;17.67;4.55;;;18.40;99.90;;;;;;5012808;28;20053;-57
2023/07/23 02:16:03;;;;;;;4.68;3.53;;;18.40;99.90;;;;;;4994921;28;20057;-58
2023/07/23 02:18:29;;;;;;;6.55;3.70;;;18.40;99.90;;;;;;5012411;28;20030;-55
2023/07/23 02:20:54;;;;;;;6.63;4.00;;;18.40;99.90;;;;;;4995021;28;20048;-56
2023/07/23 02:23:20;;;;;;;9.52;4.10;;;18.30;99.90;;;;;;4994984;28;20397;-56
2023/07/23 02:25:49;;;;;;;10.95;3.80;;;18.30;99.90;;;;;;5012528;28;20112;-59
2023/07/23 02:28:15;;;;;;;6.95;4.45;;;18.30;99.90;;;;;;5012186;28;20109;-58
2023/07/23 02:30:41;;;;;;;5.88;4.15;;;18.20;99.90;;;;;;5012420;28;20054;-57
2023/07/23 02:33:06;;;;;;;5.70;3.78;;;18.20;99.90;;;;;;5012455;28;20030;-58
2023/07/23 02:35:36;;;;;;;6.30;3.65;;;18.10;99.90;;;;;;5012420;28;20025;-58
2023/07/23 02:38:02;;;;;;;4.53;3.90;;;18.10;99.90;;;;;;5011921;28;20034;-57
2023/07/23 02:40:33;;;;;;;8.13;4.53;;;18.10;99.90;;;;;;5012287;28;20112;-57
2023/07/23 02:42:59;;;;;;;5.10;4.25;;;18.10;99.90;;;;;;4994679;28;20026;-57
2023/07/23 02:45:25;;;;;;;6.97;4.10;;;18.00;99.90;;;;;;5012171;28;20025;-57
2023/07/23 02:47:50;;;;;;;4.10;3.60;;;18.00;99.90;;;;;;5011298;28;20057;-52
2023/07/23 02:50:16;;;;;;;8.95;4.20;;;18.00;99.90;;;;;;4994611;28;20056;-57
2023/07/23 02:52:41;;;;;;;8.73;4.43;;;17.90;99.90;;;;;;5012111;28;20374;-55
2023/07/23 02:55:07;;;;;;;5.68;4.45;;;17.80;99.90;;;;;;5012015;28;20551;-56
2023/07/23 02:57:32;;;;;;;4.85;4.13;;;17.80;99.90;;;;;;5011597;28;20108;-57
2023/07/23 02:59:58;;;;;;;4.65;4.15;;;17.80;99.90;;;;;;5011991;28;20026;-57
2023/07/23 03:02:23;;;;;;;6.82;4.97;;;17.70;99.90;;;;;;5012045;28;20026;-55
2023/07/23 03:04:49;;;;;;;12.65;5.38;;;17.70;99.90;;;;;;5012153;28;20033;-53
2023/07/23 03:07:14;;;;;;;6.35;5.03;;;17.70;99.90;;;;;;5011763;28;20041;-55
2023/07/23 03:09:40;;;;;;;7.72;5.07;;;17.70;99.90;;;;;;5011890;28;20105;-52
2023/07/23 03:12:07;;;;;;;11.98;4.60;;;17.70;99.90;;;;;;5011841;28;20041;-55
2023/07/23 03:14:32;;;;;;;6.03;4.75;;;17.70;99.90;;;;;;4994067;28;20109;-55
2023/07/23 03:16:58;;;;;;;4.90;4.40;;;17.70;99.90;;;;;;5011198;28;20420;-55
2023/07/23 03:19:23;;;;;;;6.70;4.93;;;17.70;99.90;;;;;;4994056;28;20026;-53
2023/07/23 03:21:49;;;;;;;9.70;5.15;;;17.70;99.90;;;;;;4994166;28;20018;-57
2023/07/23 03:24:14;;;;;;;5.55;4.78;;;17.70;99.90;;;;;;5011706;28;20032;-53
2023/07/23 03:26:40;;;;;;;7.20;4.40;;;17.70;99.90;;;;;;5011573;28;20026;-56
2023/07/23 03:29:06;;;;;;;7.70;4.60;;;17.70;99.90;;;;;;5011616;28;20022;-55
2023/07/23 03:31:31;;;;;;;9.57;4.22;;;17.70;99.90;;;;;;5011815;28;20113;-56
2023/07/23 03:33:57;;;;;;;7.10;4.90;;;17.70;99.90;;;;;;5011565;28;20034;-56
2023/07/23 03:36:24;;;;;;;7.60;4.97;;;17.60;99.90;;;;;;5011754;28;20030;-58
2023/07/23 03:38:50;;;;;;;8.52;4.57;;;17.70;99.90;;;;;;5011184;28;20049;-58
2023/07/23 03:41:16;;;;;;;7.43;5.18;;;17.60;99.90;;;;;;5011579;28;20068;-56
2023/07/23 03:43:41;;;;;;;8.90;5.22;;;17.50;99.90;;;;;;5011520;28;20481;-55
2023/07/23 03:46:07;;;;;;;5.10;4.38;;;17.50;99.90;;;;;;4993971;28;20021;-52
2023/07/23 03:48:32;;;;;;;6.57;5.40;;;17.30;99.90;;;;;;5011569;28;20027;-55
2023/07/23 03:50:58;;;;;;;8.65;4.85;;;17.20;99.90;;;;;;4994070;28;20034;-59
2023/07/23 03:53:23;;;;;;;10.07;4.55;;;17.20;99.90;;;;;;5011429;28;20471;-57
2023/07/23 03:55:49;;;;;;;8.32;5.30;;;17.20;99.90;;;;;;5011720;28;20028;-56
2023/07/23 03:58:14;;;;;;;9.00;4.82;;;17.10;99.90;;;;;;4993480;28;20186;-59
2023/07/23 04:00:40;;;;;;;6.50;5.18;;;17.10;99.90;;;;;;5012847;28;20026;-59
2023/07/23 04:03:06;;;;;;;9.48;4.85;;;17.10;99.90;;;;;;5015544;28;20405;-59
2023/07/23 04:05:32;;;;;;;8.70;4.65;;;17.10;99.90;;;;;;5015154;28;20063;-57
2023/07/23 04:07:57;;;;;;;9.32;5.72;;;17.10;99.90;;;;;;5014661;28;20033;-57
2023/07/23 04:10:23;;;;;;;5.60;4.65;;;17.10;99.90;;;;;;5015116;28;20025;-57
2023/07/23 04:12:48;;;;;;;6.65;4.90;;;17.10;99.90;;;;;;5015065;28;20038;-54
2023/07/23 04:15:14;;;;;;;8.57;4.60;;;17.20;99.90;;;;;;4997109;28;20026;-55
2023/07/23 04:17:39;;;;;;;6.85;4.55;;;17.20;99.90;;;;;;5014774;28;20059;-59
2023/07/23 04:20:05;;;;;;;11.75;5.07;;;17.30;99.90;;;;;;5014870;28;20473;-59
2023/07/23 04:22:31;;;;;;;7.50;4.50;;;17.30;99.90;;;;;;5014798;28;20102;-58
2023/07/23 04:24:56;;;;;;;8.60;4.53;;;17.30;99.90;;;;;;4997181;28;20113;-54
2023/07/23 04:27:22;;;;;;;6.15;5.13;;;17.30;99.90;;;;;;5014399;28;20018;-55
2023/07/23 04:29:47;;;;;;;7.25;5.10;;;17.30;99.90;;;;;;5014633;28;20064;-59
2023/07/23 04:32:13;;;;;;;14.68;4.88;;;17.30;99.90;;;;;;5014749;28;20110;-52
2023/07/23 04:34:39;;;;;;;14.93;4.60;;;17.30;99.90;;;;;;5014556;28;20033;-56
2023/07/23 04:37:06;;;;;;;10.30;5.90;;;17.30;99.90;;;;;;5014214;28;20026;-57
2023/07/23 04:39:32;;;;;;;8.80;4.95;;;17.30;99.90;;;;;;5014517;28;20025;-54
2023/07/23 04:41:57;;;;;;;5.25;4.75;;;17.30;99.90;;;;;;5014487;28;20026;-59
2023/07/23 04:44:23;;;;;;;7.75;4.65;;;17.40;99.90;;;;;;5014385;28;20033;-57
2023/07/23 04:46:48;;;;;;;8.65;4.80;;;17.50;99.90;;;;;;5014126;28;20394;-57
2023/07/23 04:49:14;;;;;;;7.55;4.75;;;17.50;99.90;;;;;;5014282;28;20041;-59
2023/07/23 04:51:39;;;;;;;6.50;4.75;;;17.60;99.90;;;;;;5014767;28;20014;-57
2023/07/23 04:54:05;;;;;;;8.50;5.28;;;17.60;99.90;;;;;;5014438;28;20026;-58
2023/07/23 04:56:31;;;;;;;4.80;4.30;;;17.70;99.90;;;;;;5014129;28;20096;-59
2023/07/23 04:58:56;;;;;;;12.85;4.43;;;17.70;99.90;;;;;;5013932;28;20101;-57
2023/07/23 05:01:22;;;;;;;4.57;3.92;;;17.90;99.90;;;;;;5014267;28;20113;-55
2023/07/23 05:03:47;;;;;;;6.68;4.70;;;18.10;99.90;;;;;;5014006;28;20359;-56
2023/07/23 05:06:13;;;;;;;7.35;4.40;;;18.20;99.90;;;;;;4996445;28;20030;-56
2023/07/23 05:08:38;;;;;;;6.47;4.80;;;18.30;99.90;;;;;;5014060;28;20029;-58
2023/07/23 05:11:05;;;;;;;15.05;5.25;;;18.50;99.90;;;;;;5013590;28;20030;-57
2023/07/23 05:13:32;;;;;;;5.97;4.28;;;18.50;99.90;;;;;;5013733;28;20049;-57
2023/07/23 05:15:59;;;;;;;10.80;4.15;;;18.60;99.90;;;;;;5013644;28;20034;-56
2023/07/23 05:18:25;;;;;;;9.25;4.20;;;18.50;99.90;;;;;;5013501;28;20030;-56
2023/07/23 05:20:50;;;;;;;7.68;4.10;;;18.50;99.90;;;;;;5013758;28;20021;-57
2023/07/23 05:23:20;;;;;;;5.85;4.15;;;18.40;99.90;;;;;;5014321;28;20464;-56
2023/07/23 05:25:46;;;;;;;11.63;5.28;;;18.40;99.90;;;;;;5014006;28;20452;-59
2023/07/23 05:28:11;;;;;;;4.93;3.92;;;18.30;99.90;;;;;;4996360;28;20052;-60
2023/07/23 05:30:38;;;;;;;5.97;3.67;;;18.30;99.90;;;;;;5014070;28;20145;-59
2023/07/23 05:33:03;;;;;;;5.93;4.25;;;18.20;99.90;;;;;;5013847;28;20033;-59
2023/07/23 05:35:29;;;;;;;11.07;4.47;;;18.20;99.90;;;;;;5013593;28;20029;-58
2023/07/23 05:37:54;;;;;;;5.60;4.05;;;18.20;99.90;;;;;;4995430;28;20442;-56
2023/07/23 05:40:20;;;;;;;9.55;4.07;;;18.20;99.90;;;;;;5013322;28;20026;-57
2023/07/23 05:42:46;;;;;;;7.25;3.83;;;18.20;99.90;;;;;;5013392;28;20101;-60
2023/07/23 05:45:11;;;;;;;4.32;3.83;;;18.30;99.90;;;;;;5013319;28;20034;-55
2023/07/23 05:47:37;;;;;;;7.68;3.58;;;18.40;99.90;;;;;;5012924;28;20552;-58
2023/07/23 05:50:02;;;;;;;6.15;3.55;;;18.50;99.90;;;;;;5013163;28;20037;-59
2023/07/23 05:52:28;;;;;;;11.80;4.45;;;18.60;99.90;;;;;;4995559;28;20028;-55
2023/07/23 05:54:53;;;;;;;6.88;3.78;;;18.70;99.90;;;;;;5013126;28;20319;-55
2023/07/23 05:57:19;;;;;;;7.65;4.20;;;18.90;99.90;;;;;;5012751;28;20049;-57
2023/07/23 05:59:44;;;;;;;11.70;3.72;;;19.00;99.90;;;;;;4995411;28;20036;-58
2023/07/23 06:02:10;;;;;;;3.95;3.08;;;19.20;99.90;;;;;;4995411;28;20021;-57
2023/07/23 06:04:37;;;;;;;8.43;3.63;;;19.50;99.90;;;;;;5012862;28;20485;-54
2023/07/23 06:07:03;;;;;;;7.45;2.97;;;19.80;99.90;;;;;;4994970;28;20576;-55
2023/07/23 06:09:29;;;;;;;5.32;3.20;;;20.30;99.90;;;;;;5012761;28;20108;-58
2023/07/23 06:11:55;;;;;;;5.00;3.15;;;21.10;99.90;;;;;;5012738;28;20069;-57
2023/07/23 06:14:20;;;;;;;4.05;2.60;;;22.50;97.50;;;;;;5012770;28;20025;-58
2023/07/23 06:16:46;;;;;;;5.97;3.33;;;23.80;96.00;;;;;;5012236;28;20022;-58
2023/07/23 06:19:11;;;;;;;3.20;2.63;;;24.90;93.40;;;;;;4994975;28;20057;-53
2023/07/23 06:21:37;;;;;;;3.38;2.63;;;25.90;92.00;;;;;;5013082;28;20034;-52
2023/07/23 06:24:02;;;;;;;4.03;2.47;;;26.50;89.60;;;;;;4994174;28;20056;-49
2023/07/23 06:26:28;;;;;;;4.68;2.65;;;27.10;88.40;;;;;;5012358;28;20539;-56
2023/07/23 06:28:54;;;;;;;5.05;2.10;;;27.70;86.70;;;;;;5012252;28;20105;-55
2023/07/23 06:31:19;;;;;;;7.25;2.95;;;28.10;83.60;;;;;;5012593;28;20397;-56
2023/07/23 06:33:45;;;;;;;7.25;2.50;;;28.10;82.70;;;;;;5012262;28;20258;-54
2023/07/23 06:36:10;;;;;;;3.65;2.20;;;28.40;82.70;;;;;;5012373;28;20030;-54
2023/07/23 06:38:36;;;;;;;2.85;2.10;;;29.10;81.20;;;;;;5015809;23;20049;-58
2023/07/23 06:41:01;;;;;;;4.93;2.15;;;29.20;79.80;;;;;;5012744;28;20104;-53
2023/07/23 06:43:27;;;;;;;6.90;2.58;;;28.40;79.10;;;;;;5012401;28;20026;-55
2023/07/23 06:45:52;;;;;;;2.20;2.00;;;27.60;80.70;;;;;;5013082;28;20109;-59
2023/07/23 06:48:20;;;;;;;3.45;2.40;;;26.80;82.00;;;;;;5013118;28;20026;-58
2023/07/23 06:50:46;;;;;;;15.18;4.15;;;26.50;83.10;;;;;;5013592;28;20076;-58
2023/07/23 06:53:15;;;;;;;6.95;2.47;;;26.40;83.90;;;;;;5013606;28;20065;-57
2023/07/23 06:56:00;;;;;;;2.47;1.98;;;26.40;84.10;;;;;;5013155;28;20079;-57
2023/07/23 06:58:27;;;;;;;3.30;2.25;;;26.40;84.10;;;;;;4994232;28;20026;-59
2023/07/23 07:00:52;;;;;;;3.03;2.42;;;26.40;83.90;;;;;;5012235;28;20034;-54
2023/07/23 07:03:18;;;;;;;6.88;2.30;;;26.90;83.90;;;;;;4994559;28;20021;-57
2023/07/23 07:05:43;;;;;;;2.55;2.35;;;27.70;82.60;;;;;;4994474;28;20077;-57
2023/07/23 07:08:09;;;;;;;2.30;2.08;;;27.90;81.80;;;;;;5012114;28;20080;-58
2023/07/23 07:10:34;;;;;;;4.20;1.60;;;28.00;82.30;;;;;;4993831;28;20026;-59
2023/07/23 07:13:00;;;;;;;4.80;1.92;;;27.80;82.40;;;;;;5015349;28;20052;-58
2023/07/23 07:15:26;;;;;;;2.90;2.03;;;28.20;82.20;;;;;;5023442;28;20025;-56
2023/07/23 07:17:51;;;;;;;1.50;1.40;;;28.50;81.10;;;;;;5022048;28;20100;-55
2023/07/23 07:20:17;;;;;;;3.20;1.73;;;28.40;81.20;;;;;;5014004;28;20080;-54
2023/07/23 07:22:42;;;;;;;2.80;1.60;;;28.40;81.50;;;;;;5011297;28;20067;-54
2023/07/23 07:25:08;;;;;;;2.45;1.40;;;28.10;81.60;;;;;;5009888;28;20030;-54
2023/07/23 07:27:33;;;;;;;2.10;1.58;;;27.60;81.60;;;;;;4993637;28;20393;-57
2023/07/23 07:29:59;;;;;;;3.45;1.50;;;27.30;83.40;;;;;;5013469;28;20083;-52
2023/07/23 07:32:24;;;;;;;2.22;2.00;;;26.70;83.40;;;;;;4994219;28;20026;-55
2023/07/23 07:34:50;;;;;;;5.25;1.80;;;25.80;85.10;;;;;;5013357;28;20096;-53
2023/07/23 07:37:15;;;;;;;2.20;1.35;;;25.20;86.70;;;;;;5015347;28;20040;-51
2023/07/23 07:39:41;;;;;;;2.45;1.65;;;24.60;88.90;;;;;;5015686;28;20393;-55
2023/07/23 07:42:07;;;;;;;8.25;1.30;;;24.20;90.30;;;;;;5015651;28;20081;-55
2023/07/23 07:44:33;;;;;;;2.63;1.90;;;23.80;90.70;;;;;;5015563;28;20022;-51
2023/07/23 07:46:58;;;;;;;13.27;1.60;;;23.80;90.80;;;;;;5020408;28;20036;-55
2023/07/23 07:49:24;;;;;;;3.75;1.73;;;23.80;91.00;;;;;;5009351;28;20444;-53
2023/07/23 07:51:49;;;;;;;2.15;1.70;;;23.60;91.10;;;;;;5016999;28;20133;-53
2023/07/23 07:54:15;;;;;;;2.72;1.48;;;23.50;91.70;;;;;;5015106;28;20026;-54
2023/07/23 07:56:42;;;;;;;3.53;2.15;;;23.50;91.60;;;;;;5022067;28;20026;-55
2023/07/23 07:59:11;;;;;;;2.08;1.80;;;23.50;92.00;;;;;;5026951;28;20404;-54
2023/07/23 08:01:37;;;;;;;1.55;1.45;;;23.30;91.90;;;;;;5030908;28;20033;-54
2023/07/23 08:04:06;;;;;;;2.42;1.58;;;23.10;92.30;;;;;;5014640;28;20026;-52
2023/07/23 08:06:33;;;;;;;2.60;1.70;;;22.80;92.90;;;;;;5014071;28;20029;-54
2023/07/23 08:09:02;;;;;;;3.47;1.80;;;22.70;93.50;;;;;;5014191;28;20026;-54
2023/07/23 08:11:27;;;;;;;3.20;2.03;;;22.50;93.90;;;;;;5012863;28;20042;-54
2023/07/23 08:13:53;;;;;;;3.08;1.88;;;22.30;94.10;;;;;;5016243;28;20029;-52
2023/07/23 08:16:19;;;;;;;2.05;1.85;;;22.20;94.70;;;;;;5026289;28;20032;-55
2023/07/23 08:18:45;;;;;;;1.25;1.25;;;22.20;95.10;;;;;;5034524;28;20029;-55
2023/07/23 08:21:11;;;;;;;2.90;1.67;;;22.20;95.10;;;;;;5034698;28;20026;-51
2023/07/23 08:23:37;;;;;;;1.70;1.60;;;22.20;95.10;;;;;;5016892;28;20564;-52
2023/07/23 08:26:07;;;;;;;2.03;1.63;;;22.10;95.20;;;;;;5035094;28;20079;-51
2023/07/23 08:28:43;;;;;;;2.40;2.10;;;22.10;95.50;;;;;;5034237;28;20465;-54
2023/07/23 08:31:08;;;;;;;1.85;1.40;;;22.20;95.70;;;;;;5016862;28;20029;-51
2023/07/23 08:33:34;;;;;;;6.13;1.80;;;22.00;95.80;;;;;;5034408;28;20102;-52
2023/07/23 08:36:01;;;;;;;3.35;1.55;;;22.00;96.00;;;;;;5016513;28;20121;-53
2023/07/23 08:38:28;;;;;;;1.65;1.55;;;22.10;95.90;;;;;;5033837;28;20123;-54
2023/07/23 08:40:57;;;;;;;1.83;1.30;;;22.10;96.10;;;;;;5034348;28;20056;-53
2023/07/23 08:43:47;;;;;;;1.48;1.38;;;22.20;95.70;;;;;;5034263;28;20370;-54
2023/07/23 08:46:21;;;;;;;3.47;1.58;;;22.20;96.00;;;;;;5033642;28;20025;-51
2023/07/23 08:48:58;;;;;;;1.45;1.35;;;22.30;96.20;;;;;;5034125;28;20026;-51
2023/07/23 08:51:26;;;;;;;3.17;1.60;;;22.30;95.80;;;;;;5034140;28;20074;-52
2023/07/23 08:53:52;;;;;;;1.80;1.55;;;22.30;96.10;;;;;;5034094;28;20029;-51
2023/07/23 08:56:18;;;;;;;1.77;1.30;;;22.30;95.70;;;;;;5033918;28;20029;-54
2023/07/23 08:58:45;;;;;;;1.50;1.40;;;22.30;95.80;;;;;;5033794;28;20523;-52
2023/07/23 09:01:14;;;;;;;1.75;1.58;;;22.30;96.10;;;;;;5033696;28;20055;-52
2023/07/23 09:03:39;;;;;;;1.88;1.48;;;22.20;95.70;;;;;;5033740;28;20104;-55
2023/07/23 09:06:05;;;;;;;1.70;1.45;;;22.20;95.90;;;;;;5033811;28;20053;-55
2023/07/23 09:08:32;;;;;;;1.95;1.40;;;22.10;96.00;;;;;;5033613;28;20056;-51
2023/07/23 09:10:57;;;;;;;1.80;1.30;;;22.00;95.90;;;;;;5033911;28;20026;-52
2023/07/23 09:13:32;;;;;;;4.47;1.30;;;22.10;95.70;;;;;;5033635;28;20100;-49
2023/07/23 09:15:58;;;;;;;1.52;1.42;;;22.20;96.70;;;;;;5033774;28;20033;-55
2023/07/23 09:18:23;;;;;;;1.40;1.27;;;22.20;95.70;;;;;;5022748;28;20041;-53
2023/07/23 09:20:49;;;;;;;3.17;1.75;;;22.30;96.00;;;;;;5005194;28;20497;-49
2023/07/23 09:23:15;;;;;;;1.60;1.50;;;22.60;95.90;;;;;;5012213;28;20030;-50
2023/07/23 09:25:43;;;;;;;3.50;1.25;;;22.70;95.20;;;;;;5020977;28;20013;-49
2023/07/23 09:28:22;;;;;;;3.42;1.23;;;22.80;95.20;;;;;;5005787;28;20026;-47
2023/07/23 09:30:48;;;;;;;1.10;1.10;;;22.80;94.80;;;;;;5012426;28;20061;-49
2023/07/23 09:33:13;;;;;;;3.90;1.13;;;22.80;94.80;;;;;;5015603;28;20034;-52
2023/07/23 09:35:39;;;;;;;5.82;1.85;;;22.80;94.70;;;;;;5013216;28;20017;-48
2023/07/23 09:38:05;;;;;;;1.70;1.30;;;22.70;94.80;;;;;;5012783;28;20034;-50
2023/07/23 09:40:39;;;;;;;2.08;1.30;;;22.80;94.70;;;;;;5013588;28;20022;-50
2023/07/23 09:43:05;;;;;;;1.67;1.25;;;22.70;94.50;;;;;;5013293;28;20057;-54
2023/07/23 09:45:36;;;;;;;1.90;1.30;;;22.80;94.70;;;;;;5013259;28;20172;-54
2023/07/23 09:48:02;;;;;;;3.63;1.40;;;22.80;94.70;;;;;;5011217;28;20034;-51
2023/07/23 09:50:28;;;;;;;1.50;1.27;;;22.80;94.60;;;;;;5013592;28;20501;-53
2023/07/23 09:52:53;;;;;;;1.17;1.17;;;22.70;94.70;;;;;;4995135;28;20097;-54
2023/07/23 09:55:22;;;;;;;1.50;1.08;;;22.70;94.70;;;;;;5012849;28;20456;-55
2023/07/23 09:57:50;;;;;;;8.32;6.07;;;22.70;94.80;;;;;;5010747;28;20434;-51
2023/07/23 10:00:17;;;;;;;34.92;22.45;;;22.60;95.10;;;;;;5014259;28;20409;-49
2023/07/23 10:02:45;;;;;;;39.83;26.40;;;22.50;95.60;;;;;;4991569;28;20014;-51
2023/07/23 10:05:13;;;;;;;1.83;1.33;;;22.50;95.50;;;;;;5009645;28;20050;-46
2023/07/23 10:07:39;;;;;;;1.27;1.27;;;22.50;95.90;;;;;;4992486;28;20014;-50
2023/07/23 10:10:08;;;;;;;1.17;1.10;;;22.50;96.10;;;;;;5006476;28;20486;-51
2023/07/23 10:12:34;;;;;;;5.55;1.17;;;22.60;96.10;;;;;;5012213;28;20461;-56
2023/07/23 10:14:59;;;;;;;2.15;1.20;;;22.60;96.10;;;;;;5021480;28;20109;-52
2023/07/23 10:17:28;;;;;;;2.00;1.20;;;22.70;96.20;;;;;;5011048;28;20024;-51
2023/07/23 10:19:54;;;;;;;3.78;1.30;;;22.80;96.40;;;;;;5003739;28;20114;-52
2023/07/23 10:22:23;;;;;;;4.32;1.10;;;23.00;96.10;;;;;;5012426;28;20496;-51
2023/07/23 10:24:52;;;;;;;1.25;1.20;;;23.20;96.00;;;;;;5012787;28;20025;-49
2023/07/23 10:27:18;;;;;;;1.42;1.30;;;23.50;95.30;;;;;;5012266;28;20131;-52
2023/07/23 10:30:17;;;;;;;1.90;1.23;;;23.90;94.80;;;;;;5018667;28;20520;-52
2023/07/23 10:32:44;;;;;;;1.63;1.20;;;24.40;94.40;;;;;;5008760;28;20057;-51
2023/07/23 10:35:10;;;;;;;3.42;1.08;;;24.80;93.60;;;;;;5005550;28;20552;-50
2023/07/23 10:37:35;;;;;;;1.40;1.00;;;25.00;92.60;;;;;;5004354;28;20034;-50
2023/07/23 10:40:03;;;;;;;1.67;1.58;;;25.10;91.70;;;;;;5010072;28;20037;-50
2023/07/23 10:42:35;;;;;;;4.65;1.30;;;25.10;91.80;;;;;;5011419;28;20014;-54
2023/07/23 10:45:21;;;;;;;3.08;1.35;;;25.00;91.50;;;;;;5012062;28;20437;-51
2023/07/23 10:47:47;;;;;;;2.25;1.15;;;25.00;91.70;;;;;;5011878;28;20026;-54
2023/07/23 10:50:15;;;;;;;1.23;1.00;;;25.10;91.80;;;;;;5012735;28;20056;-55
2023/07/23 10:52:45;;;;;;;8.25;1.75;;;25.30;91.70;;;;;;5011957;28;20022;-51
2023/07/23 10:55:11;;;;;;;1.88;1.50;;;25.40;91.40;;;;;;5022007;28;20032;-52
2023/07/23 10:57:40;;;;;;;2.63;1.45;;;25.50;91.60;;;;;;5031822;28;20025;-52
2023/07/23 11:00:20;;;;;;;0.95;0.95;;;25.60;91.00;;;;;;5019930;28;20029;-51
2023/07/23 11:02:48;;;;;;;3.15;1.48;;;25.50;90.70;;;;;;5027371;28;20092;-53
2023/07/23 11:05:14;;;;;;;3.00;1.85;;;25.50;91.20;;;;;;5024330;28;20026;-54
2023/07/23 11:07:39;;;;;;;2.70;1.27;;;25.50;91.30;;;;;;5015810;28;20041;-51
2023/07/23 11:10:19;;;;;;;2.53;1.17;;;25.50;91.00;;;;;;5020932;28;20029;-51
2023/07/23 11:12:44;;;;;;;3.20;1.08;;;25.60;90.40;;;;;;5031648;28;20378;-53
2023/07/23 11:15:15;;;;;;;1.55;1.40;;;25.60;90.20;;;;;;5032140;28;20036;-54
2023/07/23 11:17:40;;;;;;;2.95;1.30;;;25.70;90.20;;;;;;5032783;28;20068;-52
2023/07/23 11:20:07;;;;;;;1.55;1.45;;;25.70;90.20;;;;;;5032944;28;20032;-55
2023/07/23 11:22:32;;;;;;;2.35;1.30;;;25.60;89.80;;;;;;5017209;28;20505;-58
2023/07/23 11:25:00;;;;;;;2.35;1.20;;;;;;;;;;5011746;28;20046;-48
2023/07/23 11:27:26;;;;;;;1.52;1.23;;;;;;;;;;5011286;28;20028;-51
2023/07/23 11:29:52;;;;;;;4.88;1.33;;;;;;;;;;5012035;28;20026;-50
2023/07/23 11:32:18;;;;;;;10.77;1.50;;;;;;;;;;5011795;28;20066;-53
2023/07/23 11:34:44;;;;;;;3.05;1.60;;;;;;;;;;5011584;28;20037;-50
2023/07/23 11:37:10;;;;;;;2.42;1.58;;;25.60;99.90;;;;;;5012792;28;20033;-53
2023/07/23 11:39:35;;;;;;;6.82;2.35;;;25.40;89.30;;;;;;5020396;28;20026;-52
2023/07/23 11:42:01;;;;;;;13.35;9.88;;;25.40;89.50;;;;;;5013827;28;20101;-53
2023/07/23 11:44:26;;;;;;;5.35;3.97;;;25.40;88.90;;;;;;5023425;28;20022;-53
2023/07/23 11:47:00;;;;;;;2.78;1.45;;;25.40;88.80;;;;;;5031050;28;20438;-51
2023/07/23 11:49:25;;;;;;;2.03;1.70;;;25.50;88.70;;;;;;5030609;28;20029;-55
2023/07/23 11:51:51;;;;;;;4.82;1.80;;;25.50;85.70;;;;;;5031284;28;20060;-51
2023/07/23 11:54:16;;;;;;;3.97;1.52;;;25.60;84.50;;;;;;5031196;28;20640;-53
2023/07/23 11:56:45;;;;;;;8.82;2.42;;;25.60;83.40;;;;;;5030858;28;20052;-55
2023/07/23 11:59:13;;;;;;;1.55;1.45;;;25.70;83.40;;;;;;5031340;28;20508;-54
2023/07/23 12:01:39;;;;;;;2.25;1.58;;;25.70;81.10;;;;;;5013537;28;20493;-54
2023/07/23 12:04:06;;;;;;;3.47;1.83;;;25.80;82.10;;;;;;5031142;28;20026;-51
2023/07/23 12:06:33;;;;;;;1.83;1.63;;;25.90;82.60;;;;;;5031135;28;20036;-57
2023/07/23 12:09:00;;;;;;;3.85;1.52;;;26.00;82.30;;;;;;5030666;28;20036;-50
2023/07/23 12:11:29;;;;;;;8.73;1.52;;;26.00;82.20;;;;;;5025535;28;20029;-56
2023/07/23 12:13:57;;;;;;;2.38;1.85;;;26.00;82.40;;;;;;4992867;28;20432;-51
2023/07/23 12:16:33;;;;;;;1.70;1.60;;;26.00;82.50;;;;;;5010869;28;20022;-55
2023/07/23 12:19:14;;;;;;;2.03;1.50;;;25.90;82.20;;;;;;5005212;28;20026;-52
2023/07/23 12:21:41;;;;;;;2.03;1.83;;;26.00;82.90;;;;;;5010296;28;20428;-56
2023/07/23 12:24:24;;;;;;;3.53;1.65;;;25.90;82.70;;;;;;5017242;28;20088;-55
2023/07/23 12:26:51;;;;;;;4.70;2.67;;;25.90;83.60;;;;;;5012766;28;20025;-52
2023/07/23 12:29:18;;;;;;;3.85;3.10;;;25.80;79.80;;;;;;5014160;28;20018;-57
2023/07/23 12:31:46;;;;;;;6.72;2.40;;;25.80;79.40;;;;;;5015489;28;20026;-51
2023/07/23 12:34:12;;;;;;;191.25;113.35;;;25.70;79.60;;;;;;5010538;28;20452;-51
2023/07/23 12:36:39;;;;;;;21.10;14.15;;;25.70;79.50;;;;;;5014195;28;20065;-50
2023/07/23 12:39:06;;;;;;;5.45;3.22;;;25.70;79.20;;;;;;5014066;28;20489;-50
2023/07/23 12:41:32;;;;;;;2.92;2.72;;;25.60;79.30;;;;;;5049484;22;20463;-48
2023/07/23 12:43:58;;;;;;;4.70;2.90;;;25.60;79.90;;;;;;5049152;28;20017;-45
2023/07/23 12:46:23;;;;;;;3.85;3.53;;;25.60;80.80;;;;;;5053541;28;20053;-47
2023/07/23 12:48:49;;;;;;;3.97;2.45;;;25.60;80.80;;;;;;5053973;28;20075;-46